sensor_id;sensor_type;location;lat;lon;timestamp;temperature;humidity
3256;DHT22;1640;48.504;9.224;2024-03-02T00:01:22;6.90;99.90
3256;DHT22;1640;48.504;9.224;2024-03-02T00:03:49;6.90;99.90
3256;DHT22;1640;48.504;9.224;2024-03-02T00:06:20;6.90;99.90
3256;DHT22;1640;48.504;9.224;2024-03-02T00:08:47;6.80;99.90
3256;DHT22;1640;48.504;9.224;2024-03-02T00:11:14;6.80;99.90
3256;DHT22;1640;48.504;9.224;2024-03-02T00:13:42;6.70;99.90
3256;DHT22;1640;48.504;9.224;2024-03-02T00:16:10;6.60;99.90
3256;DHT22;1640;48.504;9.224;2024-03-02T00:18:39;6.60;99.90
3256;DHT22;1640;48.504;9.224;2024-03-02T00:21:08;6.60;99.90
3256;DHT22;1640;48.504;9.224;2024-03-02T00:23:37;6.60;99.90
3256;DHT22;1640;48.504;9.224;2024-03-02T00:26:05;6.60;99.90
3256;DHT22;1640;48.504;9.224;2024-03-02T00:28:35;6.60;99.90
3256;DHT22;1640;48.504;9.224;2024-03-02T00:31:05;6.60;99.90
3256;DHT22;1640;48.504;9.224;2024-03-02T00:33:34;6.60;99.90
3256;DHT22;1640;48.504;9.224;2024-03-02T00:36:04;6.60;99.90
3256;DHT22;1640;48.504;9.224;2024-03-02T00:38:33;6.60;99.90
3256;DHT22;1640;48.504;9.224;2024-03-02T00:41:04;6.60;99.90
3256;DHT22;1640;48.504;9.224;2024-03-02T00:43:43;6.50;99.90
3256;DHT22;1640;48.504;9.224;2024-03-02T00:46:12;6.50;99.90
3256;DHT22;1640;48.504;9.224;2024-03-02T00:48:48;6.40;99.90
3256;DHT22;1640;48.504;9.224;2024-03-02T00:51:19;6.40;99.90
3256;DHT22;1640;48.504;9.224;2024-03-02T00:53:47;6.40;99.90
3256;DHT22;1640;48.504;9.224;2024-03-02T00:56:15;6.40;99.90
3256;DHT22;1640;48.504;9.224;2024-03-02T00:58:42;6.40;99.90
3256;DHT22;1640;48.504;9.224;2024-03-02T01:01:09;6.40;99.90
3256;DHT22;1640;48.504;9.224;2024-03-02T01:03:37;6.40;99.90
3256;DHT22;1640;48.504;9.224;2024-03-02T01:06:05;6.30;99.90
3256;DHT22;1640;48.504;9.224;2024-03-02T01:08:35;6.20;99.90
3256;DHT22;1640;48.504;9.224;2024-03-02T01:11:03;6.20;99.90
3256;DHT22;1640;48.504;9.224;2024-03-02T01:13:31;6.10;99.90
3256;DHT22;1640;48.504;9.224;2024-03-02T01:15:59;6.10;99.90
3256;DHT22;1640;48.504;9.224;2024-03-02T01:18:26;6.00;99.90
3256;DHT22;1640;48.504;9.224;2024-03-02T01:20:54;6.00;99.90
3256;DHT22;1640;48.504;9.224;2024-03-02T01:23:22;6.00;99.90
3256;DHT22;1640;48.504;9.224;2024-03-02T01:25:51;5.90;99.90
3256;DHT22;1640;48.504;9.224;2024-03-02T01:28:19;5.90;99.90
3256;DHT22;1640;48.504;9.224;2024-03-02T01:30:47;5.90;99.90
3256;DHT22;1640;48.504;9.224;2024-03-02T01:33:15;5.80;99.90
3256;DHT22;1640;48.504;9.224;2024-03-02T01:35:42;5.80;99.90
3256;DHT22;1640;48.504;9.224;2024-03-02T01:38:10;5.70;99.90
3256;DHT22;1640;48.504;9.224;2024-03-02T01:40:38;5.60;99.90
3256;DHT22;1640;48.504;9.224;2024-03-02T01:43:07;5.50;99.90
3256;DHT22;1640;48.504;9.224;2024-03-02T01:45:34;5.40;99.90
3256;DHT22;1640;48.504;9.224;2024-03-02T01:48:04;5.40;99.90
3256;DHT22;1640;48.504;9.224;2024-03-02T01:50:32;5.30;99.90
3256;DHT22;1640;48.504;9.224;2024-03-02T01:53:00;5.20;99.90
3256;DHT22;1640;48.504;9.224;2024-03-02T01:55:28;5.20;99.90
3256;DHT22;1640;48.504;9.224;2024-03-02T01:57:56;5.10;99.90
3256;DHT22;1640;48.504;9.224;2024-03-02T02:00:25;5.10;99.90
3256;DHT22;1640;48.504;9.224;2024-03-02T02:02:53;5.00;99.90
3256;DHT22;1640;48.504;9.224;2024-03-02T02:05:21;5.00;99.90
3256;DHT22;1640;48.504;9.224;2024-03-02T02:07:49;4.90;99.90
3256;DHT22;1640;48.504;9.224;2024-03-02T02:10:16;4.70;99.90
3256;DHT22;1640;48.504;9.224;2024-03-02T02:12:44;4.70;99.90
3256;DHT22;1640;48.504;9.224;2024-03-02T02:15:26;4.60;99.90
3256;DHT22;1640;48.504;9.224;2024-03-02T02:17:53;4.50;99.90
3256;DHT22;1640;48.504;9.224;2024-03-02T02:20:21;4.40;99.90
3256;DHT22;1640;48.504;9.224;2024-03-02T02:22:57;4.40;99.90
3256;DHT22;1640;48.504;9.224;2024-03-02T02:25:24;4.30;99.90
3256;DHT22;1640;48.504;9.224;2024-03-02T02:27:52;4.30;99.90
3256;DHT22;1640;48.504;9.224;2024-03-02T02:30:20;4.30;99.90
3256;DHT22;1640;48.504;9.224;2024-03-02T02:32:48;4.30;99.90
3256;DHT22;1640;48.504;9.224;2024-03-02T02:35:15;4.30;99.90
3256;DHT22;1640;48.504;9.224;2024-03-02T02:37:43;4.20;99.90
3256;DHT22;1640;48.504;9.224;2024-03-02T02:40:13;4.10;99.90
3256;DHT22;1640;48.504;9.224;2024-03-02T02:42:41;4.00;99.90
3256;DHT22;1640;48.504;9.224;2024-03-02T02:45:08;4.00;99.90
3256;DHT22;1640;48.504;9.224;2024-03-02T02:47:37;3.90;99.90
3256;DHT22;1640;48.504;9.224;2024-03-02T02:50:06;3.90;99.90
3256;DHT22;1640;48.504;9.224;2024-03-02T02:52:34;3.80;99.90
3256;DHT22;1640;48.504;9.224;2024-03-02T02:55:06;3.80;99.90
3256;DHT22;1640;48.504;9.224;2024-03-02T02:57:36;3.70;99.90
3256;DHT22;1640;48.504;9.224;2024-03-02T03:00:06;3.70;99.90
3256;DHT22;1640;48.504;9.224;2024-03-02T03:02:39;3.70;99.90
3256;DHT22;1640;48.504;9.224;2024-03-02T03:05:08;3.60;99.90
3256;DHT22;1640;48.504;9.224;2024-03-02T03:07:35;3.50;99.90
3256;DHT22;1640;48.504;9.224;2024-03-02T03:10:04;3.50;99.90
3256;DHT22;1640;48.504;9.224;2024-03-02T03:12:32;3.50;99.90
3256;DHT22;1640;48.504;9.224;2024-03-02T03:15:02;3.40;99.90
3256;DHT22;1640;48.504;9.224;2024-03-02T03:17:30;3.40;99.90
3256;DHT22;1640;48.504;9.224;2024-03-02T03:19:58;3.40;99.90
3256;DHT22;1640;48.504;9.224;2024-03-02T03:22:25;3.30;99.90
3256;DHT22;1640;48.504;9.224;2024-03-02T03:24:53;3.30;99.90
3256;DHT22;1640;48.504;9.224;2024-03-02T03:27:20;3.20;99.90
3256;DHT22;1640;48.504;9.224;2024-03-02T03:29:47;3.20;99.90
3256;DHT22;1640;48.504;9.224;2024-03-02T03:32:16;3.10;99.90
3256;DHT22;1640;48.504;9.224;2024-03-02T03:34:44;3.10;99.90
3256;DHT22;1640;48.504;9.224;2024-03-02T03:37:11;3.10;99.90
3256;DHT22;1640;48.504;9.224;2024-03-02T03:39:39;3.10;99.90
3256;DHT22;1640;48.504;9.224;2024-03-02T03:42:06;3.10;99.90
3256;DHT22;1640;48.504;9.224;2024-03-02T03:44:33;3.10;99.90
3256;DHT22;1640;48.504;9.224;2024-03-02T03:47:01;3.10;99.90
3256;DHT22;1640;48.504;9.224;2024-03-02T03:49:30;3.20;99.90
3256;DHT22;1640;48.504;9.224;2024-03-02T03:51:57;3.10;99.90
3256;DHT22;1640;48.504;9.224;2024-03-02T03:54:25;3.00;99.90
3256;DHT22;1640;48.504;9.224;2024-03-02T03:56:52;3.00;99.90
3256;DHT22;1640;48.504;9.224;2024-03-02T03:59:19;3.00;99.90
3256;DHT22;1640;48.504;9.224;2024-03-02T04:01:47;3.00;99.90
3256;DHT22;1640;48.504;9.224;2024-03-02T04:04:14;3.00;99.90
3256;DHT22;1640;48.504;9.224;2024-03-02T04:06:43;2.90;99.90
3256;DHT22;1640;48.504;9.224;2024-03-02T04:09:10;2.90;99.90
3256;DHT22;1640;48.504;9.224;2024-03-02T04:11:38;2.90;99.90
3256;DHT22;1640;48.504;9.224;2024-03-02T04:14:05;2.90;99.90
3256;DHT22;1640;48.504;9.224;2024-03-02T04:16:32;2.90;99.90
3256;DHT22;1640;48.504;9.224;2024-03-02T04:19:00;2.90;99.90
3256;DHT22;1640;48.504;9.224;2024-03-02T04:21:27;2.90;99.90
3256;DHT22;1640;48.504;9.224;2024-03-02T04:23:56;2.90;99.90
3256;DHT22;1640;48.504;9.224;2024-03-02T04:26:25;2.90;99.90
3256;DHT22;1640;48.504;9.224;2024-03-02T04:28:52;2.90;99.90
3256;DHT22;1640;48.504;9.224;2024-03-02T04:31:20;3.00;99.90
3256;DHT22;1640;48.504;9.224;2024-03-02T04:33:47;3.00;99.90
3256;DHT22;1640;48.504;9.224;2024-03-02T04:36:15;3.00;99.90
3256;DHT22;1640;48.504;9.224;2024-03-02T04:38:42;3.00;99.90
3256;DHT22;1640;48.504;9.224;2024-03-02T04:41:11;3.00;99.90
3256;DHT22;1640;48.504;9.224;2024-03-02T04:43:38;3.00;99.90
3256;DHT22;1640;48.504;9.224;2024-03-02T04:46:06;3.00;99.90
3256;DHT22;1640;48.504;9.224;2024-03-02T04:48:34;3.00;99.90
3256;DHT22;1640;48.504;9.224;2024-03-02T04:51:01;2.90;99.90
3256;DHT22;1640;48.504;9.224;2024-03-02T04:53:29;2.90;99.90
3256;DHT22;1640;48.504;9.224;2024-03-02T04:55:56;2.90;99.90
3256;DHT22;1640;48.504;9.224;2024-03-02T04:58:54;2.90;99.90
3256;DHT22;1640;48.504;9.224;2024-03-02T05:01:22;2.90;99.90
3256;DHT22;1640;48.504;9.224;2024-03-02T05:03:49;2.80;99.90
3256;DHT22;1640;48.504;9.224;2024-03-02T05:06:17;2.90;99.90
3256;DHT22;1640;48.504;9.224;2024-03-02T05:08:44;3.20;99.90
3256;DHT22;1640;48.504;9.224;2024-03-02T05:11:12;3.40;99.90
3256;DHT22;1640;48.504;9.224;2024-03-02T05:13:58;3.60;99.90
3256;DHT22;1640;48.504;9.224;2024-03-02T05:16:25;3.70;99.90
3256;DHT22;1640;48.504;9.224;2024-03-02T05:18:52;3.90;99.90
3256;DHT22;1640;48.504;9.224;2024-03-02T05:21:20;4.10;99.90
3256;DHT22;1640;48.504;9.224;2024-03-02T05:23:48;4.20;99.90
3256;DHT22;1640;48.504;9.224;2024-03-02T05:26:15;4.30;99.90
3256;DHT22;1640;48.504;9.224;2024-03-02T05:28:43;4.30;99.90
3256;DHT22;1640;48.504;9.224;2024-03-02T05:31:11;4.30;99.90
3256;DHT22;1640;48.504;9.224;2024-03-02T05:33:42;4.30;99.90
3256;DHT22;1640;48.504;9.224;2024-03-02T05:36:09;4.40;99.90
3256;DHT22;1640;48.504;9.224;2024-03-02T05:38:37;4.40;99.90
3256;DHT22;1640;48.504;9.224;2024-03-02T05:41:04;4.40;99.90
3256;DHT22;1640;48.504;9.224;2024-03-02T05:43:32;4.40;99.90
3256;DHT22;1640;48.504;9.224;2024-03-02T05:45:59;4.40;99.90
3256;DHT22;1640;48.504;9.224;2024-03-02T05:48:28;4.50;99.90
3256;DHT22;1640;48.504;9.224;2024-03-02T05:50:55;4.50;99.90
3256;DHT22;1640;48.504;9.224;2024-03-02T05:53:23;4.60;99.90
3256;DHT22;1640;48.504;9.224;2024-03-02T05:55:50;4.60;99.90
3256;DHT22;1640;48.504;9.224;2024-03-02T05:58:21;4.60;99.90
3256;DHT22;1640;48.504;9.224;2024-03-02T06:00:58;4.50;99.90
3256;DHT22;1640;48.504;9.224;2024-03-02T06:03:25;4.60;99.90
3256;DHT22;1640;48.504;9.224;2024-03-02T06:05:56;4.50;99.90
3256;DHT22;1640;48.504;9.224;2024-03-02T06:08:23;4.50;99.90
3256;DHT22;1640;48.504;9.224;2024-03-02T06:10:50;4.50;99.90
3256;DHT22;1640;48.504;9.224;2024-03-02T06:13:18;4.50;99.90
3256;DHT22;1640;48.504;9.224;2024-03-02T06:15:45;4.50;99.90
3256;DHT22;1640;48.504;9.224;2024-03-02T06:18:12;4.60;99.90
3256;DHT22;1640;48.504;9.224;2024-03-02T06:20:40;4.50;99.90
3256;DHT22;1640;48.504;9.224;2024-03-02T06:23:09;4.30;99.90
3256;DHT22;1640;48.504;9.224;2024-03-02T06:25:36;4.20;99.90
3256;DHT22;1640;48.504;9.224;2024-03-02T06:28:04;4.10;99.90
3256;DHT22;1640;48.504;9.224;2024-03-02T06:30:31;4.00;99.90
3256;DHT22;1640;48.504;9.224;2024-03-02T06:32:59;4.10;99.90
3256;DHT22;1640;48.504;9.224;2024-03-02T06:35:26;4.00;99.90
3256;DHT22;1640;48.504;9.224;2024-03-02T06:37:54;3.90;99.90
3256;DHT22;1640;48.504;9.224;2024-03-02T06:40:22;3.80;99.90
3256;DHT22;1640;48.504;9.224;2024-03-02T06:42:50;3.90;99.90
3256;DHT22;1640;48.504;9.224;2024-03-02T06:45:17;3.90;99.90
3256;DHT22;1640;48.504;9.224;2024-03-02T06:47:44;4.00;99.90
3256;DHT22;1640;48.504;9.224;2024-03-02T06:50:12;4.10;99.90
3256;DHT22;1640;48.504;9.224;2024-03-02T06:52:39;4.30;99.90
3256;DHT22;1640;48.504;9.224;2024-03-02T06:55:07;4.40;99.90
3256;DHT22;1640;48.504;9.224;2024-03-02T06:57:36;4.60;99.90
3256;DHT22;1640;48.504;9.224;2024-03-02T07:00:04;4.70;99.90
3256;DHT22;1640;48.504;9.224;2024-03-02T07:02:34;4.70;99.90
3256;DHT22;1640;48.504;9.224;2024-03-02T07:05:02;4.80;99.90
3256;DHT22;1640;48.504;9.224;2024-03-02T07:07:29;4.90;99.90
3256;DHT22;1640;48.504;9.224;2024-03-02T07:09:57;4.90;99.90
3256;DHT22;1640;48.504;9.224;2024-03-02T07:12:25;4.90;99.90
3256;DHT22;1640;48.504;9.224;2024-03-02T07:14:54;5.10;99.90
3256;DHT22;1640;48.504;9.224;2024-03-02T07:17:37;5.20;99.90
3256;DHT22;1640;48.504;9.224;2024-03-02T07:20:05;5.40;99.90
3256;DHT22;1640;48.504;9.224;2024-03-02T07:22:34;5.50;99.90
3256;DHT22;1640;48.504;9.224;2024-03-02T07:25:04;5.70;99.90
3256;DHT22;1640;48.504;9.224;2024-03-02T07:27:33;5.80;99.90
3256;DHT22;1640;48.504;9.224;2024-03-02T07:30:03;6.10;99.90
3256;DHT22;1640;48.504;9.224;2024-03-02T07:32:30;6.30;99.90
3256;DHT22;1640;48.504;9.224;2024-03-02T07:34:58;6.40;99.90
3256;DHT22;1640;48.504;9.224;2024-03-02T07:37:27;6.60;99.90
3256;DHT22;1640;48.504;9.224;2024-03-02T07:39:55;6.70;99.90
3256;DHT22;1640;48.504;9.224;2024-03-02T07:42:22;6.80;99.90
3256;DHT22;1640;48.504;9.224;2024-03-02T07:44:49;6.90;99.90
3256;DHT22;1640;48.504;9.224;2024-03-02T07:47:18;6.90;99.90
3256;DHT22;1640;48.504;9.224;2024-03-02T07:49:45;6.90;99.90
3256;DHT22;1640;48.504;9.224;2024-03-02T07:52:13;6.80;99.90
3256;DHT22;1640;48.504;9.224;2024-03-02T07:54:40;6.90;99.90
3256;DHT22;1640;48.504;9.224;2024-03-02T07:57:08;7.00;99.90
3256;DHT22;1640;48.504;9.224;2024-03-02T07:59:36;7.00;99.90
3256;DHT22;1640;48.504;9.224;2024-03-02T08:02:04;7.10;99.90
3256;DHT22;1640;48.504;9.224;2024-03-02T08:04:33;7.10;2.90
3256;DHT22;1640;48.504;9.224;2024-03-02T08:07:00;7.20;6.80
3256;DHT22;1640;48.504;9.224;2024-03-02T08:09:28;7.30;6.70
3256;DHT22;1640;48.504;9.224;2024-03-02T08:11:55;7.30;6.40
3256;DHT22;1640;48.504;9.224;2024-03-02T08:14:23;7.40;8.80
3256;DHT22;1640;48.504;9.224;2024-03-02T08:16:51;7.50;8.00
3256;DHT22;1640;48.504;9.224;2024-03-02T08:19:18;7.60;11.70
3256;DHT22;1640;48.504;9.224;2024-03-02T08:21:47;7.70;15.30
3256;DHT22;1640;48.504;9.224;2024-03-02T08:24:15;7.90;23.00
3256;DHT22;1640;48.504;9.224;2024-03-02T08:26:42;8.00;23.20
3256;DHT22;1640;48.504;9.224;2024-03-02T08:29:10;8.20;31.20
3256;DHT22;1640;48.504;9.224;2024-03-02T08:31:38;8.30;33.00
3256;DHT22;1640;48.504;9.224;2024-03-02T08:34:05;8.40;32.60
3256;DHT22;1640;48.504;9.224;2024-03-02T08:36:32;8.60;37.50
3256;DHT22;1640;48.504;9.224;2024-03-02T08:39:01;8.80;39.20
3256;DHT22;1640;48.504;9.224;2024-03-02T08:41:29;8.70;42.90
3256;DHT22;1640;48.504;9.224;2024-03-02T08:43:56;8.70;43.00
3256;DHT22;1640;48.504;9.224;2024-03-02T08:46:24;8.80;43.20
3256;DHT22;1640;48.504;9.224;2024-03-02T08:48:52;8.90;47.80
3256;DHT22;1640;48.504;9.224;2024-03-02T08:51:30;9.00;49.70
3256;DHT22;1640;48.504;9.224;2024-03-02T08:53:57;9.10;49.50
3256;DHT22;1640;48.504;9.224;2024-03-02T08:56:26;9.00;51.60
3256;DHT22;1640;48.504;9.224;2024-03-02T08:58:54;8.90;45.70
3256;DHT22;1640;48.504;9.224;2024-03-02T09:01:21;9.00;47.00
3256;DHT22;1640;48.504;9.224;2024-03-02T09:03:49;9.10;48.00
3256;DHT22;1640;48.504;9.224;2024-03-02T09:06:16;9.10;46.70
3256;DHT22;1640;48.504;9.224;2024-03-02T09:08:45;9.20;43.70
3256;DHT22;1640;48.504;9.224;2024-03-02T09:11:13;8.90;37.20
3256;DHT22;1640;48.504;9.224;2024-03-02T09:13:42;8.60;28.90
3256;DHT22;1640;48.504;9.224;2024-03-02T09:16:10;8.40;23.20
3256;DHT22;1640;48.504;9.224;2024-03-02T09:18:38;8.30;17.10
3256;DHT22;1640;48.504;9.224;2024-03-02T09:21:05;8.20;13.70
3256;DHT22;1640;48.504;9.224;2024-03-02T09:23:33;8.20;6.40
3256;DHT22;1640;48.504;9.224;2024-03-02T09:26:01;8.20;6.80
3256;DHT22;1640;48.504;9.224;2024-03-02T09:28:29;8.20;3.20
3256;DHT22;1640;48.504;9.224;2024-03-02T09:30:57;8.40;5.80
3256;DHT22;1640;48.504;9.224;2024-03-02T09:33:25;8.50;5.40
3256;DHT22;1640;48.504;9.224;2024-03-02T09:35:53;8.60;7.40
3256;DHT22;1640;48.504;9.224;2024-03-02T09:38:20;8.90;12.70
3256;DHT22;1640;48.504;9.224;2024-03-02T09:40:48;9.00;17.60
3256;DHT22;1640;48.504;9.224;2024-03-02T09:43:16;9.20;19.30
3256;DHT22;1640;48.504;9.224;2024-03-02T09:45:44;9.40;21.60
3256;DHT22;1640;48.504;9.224;2024-03-02T09:48:14;9.60;32.80
3256;DHT22;1640;48.504;9.224;2024-03-02T09:50:44;10.00;44.40
3256;DHT22;1640;48.504;9.224;2024-03-02T09:53:12;10.30;48.50
3256;DHT22;1640;48.504;9.224;2024-03-02T09:55:41;10.70;58.40
3256;DHT22;1640;48.504;9.224;2024-03-02T09:58:12;11.00;65.00
3256;DHT22;1640;48.504;9.224;2024-03-02T10:00:40;11.20;64.90
3256;DHT22;1640;48.504;9.224;2024-03-02T10:03:11;11.30;66.60
3256;DHT22;1640;48.504;9.224;2024-03-02T10:05:40;11.40;68.50
3256;DHT22;1640;48.504;9.224;2024-03-02T10:08:08;11.60;69.60
3256;DHT22;1640;48.504;9.224;2024-03-02T10:10:36;11.70;71.50
3256;DHT22;1640;48.504;9.224;2024-03-02T10:13:06;11.80;71.50
3256;DHT22;1640;48.504;9.224;2024-03-02T10:15:34;12.00;73.90
3256;DHT22;1640;48.504;9.224;2024-03-02T10:18:03;12.20;74.20
3256;DHT22;1640;48.504;9.224;2024-03-02T10:20:31;12.20;74.10
3256;DHT22;1640;48.504;9.224;2024-03-02T10:23:11;12.30;74.60
3256;DHT22;1640;48.504;9.224;2024-03-02T10:25:39;12.50;74.50
3256;DHT22;1640;48.504;9.224;2024-03-02T10:28:06;12.70;75.10
3256;DHT22;1640;48.504;9.224;2024-03-02T10:30:34;12.70;75.20
3256;DHT22;1640;48.504;9.224;2024-03-02T10:33:02;12.80;75.20
3256;DHT22;1640;48.504;9.224;2024-03-02T10:35:31;12.90;75.10
3256;DHT22;1640;48.504;9.224;2024-03-02T10:37:59;12.90;74.80
3256;DHT22;1640;48.504;9.224;2024-03-02T10:40:28;13.00;73.80
3256;DHT22;1640;48.504;9.224;2024-03-02T10:42:56;12.80;72.50
3256;DHT22;1640;48.504;9.224;2024-03-02T10:45:23;12.70;71.30
3256;DHT22;1640;48.504;9.224;2024-03-02T10:47:51;12.60;69.00
3256;DHT22;1640;48.504;9.224;2024-03-02T10:50:19;12.60;70.20
3256;DHT22;1640;48.504;9.224;2024-03-02T10:52:46;12.60;67.80
3256;DHT22;1640;48.504;9.224;2024-03-02T10:55:13;12.60;72.20
3256;DHT22;1640;48.504;9.224;2024-03-02T10:57:50;12.60;72.30
3256;DHT22;1640;48.504;9.224;2024-03-02T11:00:18;12.70;72.80
3256;DHT22;1640;48.504;9.224;2024-03-02T11:02:51;12.80;72.60
3256;DHT22;1640;48.504;9.224;2024-03-02T11:05:27;12.80;73.40
3256;DHT22;1640;48.504;9.224;2024-03-02T11:08:00;12.80;74.40
3256;DHT22;1640;48.504;9.224;2024-03-02T11:10:34;13.00;74.20
3256;DHT22;1640;48.504;9.224;2024-03-02T11:13:05;13.10;74.20
3256;DHT22;1640;48.504;9.224;2024-03-02T11:15:36;13.20;74.50
3256;DHT22;1640;48.504;9.224;2024-03-02T11:30:52;13.90;65.90
3256;DHT22;1640;48.504;9.224;2024-03-02T11:33:24;13.90;66.00
3256;DHT22;1640;48.504;9.224;2024-03-02T11:35:53;14.00;66.70
3256;DHT22;1640;48.504;9.224;2024-03-02T11:38:21;14.20;65.90
3256;DHT22;1640;48.504;9.224;2024-03-02T11:40:48;14.10;65.20
3256;DHT22;1640;48.504;9.224;2024-03-02T11:43:16;14.10;66.50
3256;DHT22;1640;48.504;9.224;2024-03-02T11:45:43;14.20;67.00
3256;DHT22;1640;48.504;9.224;2024-03-02T11:48:14;14.40;66.60
3256;DHT22;1640;48.504;9.224;2024-03-02T11:50:46;14.30;64.00
3256;DHT22;1640;48.504;9.224;2024-03-02T11:53:15;14.40;64.50
3256;DHT22;1640;48.504;9.224;2024-03-02T11:55:43;14.30;65.50
3256;DHT22;1640;48.504;9.224;2024-03-02T11:58:12;14.20;65.50
3256;DHT22;1640;48.504;9.224;2024-03-02T12:00:40;14.40;66.20
3256;DHT22;1640;48.504;9.224;2024-03-02T12:03:08;14.40;65.50
3256;DHT22;1640;48.504;9.224;2024-03-02T12:05:37;14.40;66.00
3256;DHT22;1640;48.504;9.224;2024-03-02T12:08:06;14.50;65.70
3256;DHT22;1640;48.504;9.224;2024-03-02T12:10:35;14.60;63.40
3256;DHT22;1640;48.504;9.224;2024-03-02T12:13:04;14.70;64.60
3256;DHT22;1640;48.504;9.224;2024-03-02T12:15:34;14.80;65.30
3256;DHT22;1640;48.504;9.224;2024-03-02T12:18:03;14.80;65.30
3256;DHT22;1640;48.504;9.224;2024-03-02T12:20:32;14.90;64.60
3256;DHT22;1640;48.504;9.224;2024-03-02T12:23:02;14.90;61.10
3256;DHT22;1640;48.504;9.224;2024-03-02T12:25:32;14.80;62.70
3256;DHT22;1640;48.504;9.224;2024-03-02T12:28:01;14.80;64.20
3256;DHT22;1640;48.504;9.224;2024-03-02T12:30:30;14.80;63.70
3256;DHT22;1640;48.504;9.224;2024-03-02T12:32:58;14.70;64.90
3256;DHT22;1640;48.504;9.224;2024-03-02T12:35:25;14.80;64.00
3256;DHT22;1640;48.504;9.224;2024-03-02T12:37:54;14.90;66.00
3256;DHT22;1640;48.504;9.224;2024-03-02T12:40:22;15.10;64.50
3256;DHT22;1640;48.504;9.224;2024-03-02T12:42:50;15.00;64.00
3256;DHT22;1640;48.504;9.224;2024-03-02T12:45:18;15.00;64.70
3256;DHT22;1640;48.504;9.224;2024-03-02T12:47:49;15.00;64.90
3256;DHT22;1640;48.504;9.224;2024-03-02T12:50:18;15.00;65.00
3256;DHT22;1640;48.504;9.224;2024-03-02T12:52:51;15.00;64.20
3256;DHT22;1640;48.504;9.224;2024-03-02T12:55:21;14.90;65.20
3256;DHT22;1640;48.504;9.224;2024-03-02T12:57:50;15.00;64.50
3256;DHT22;1640;48.504;9.224;2024-03-02T13:00:18;15.00;63.70
3256;DHT22;1640;48.504;9.224;2024-03-02T13:02:46;15.00;64.20
3256;DHT22;1640;48.504;9.224;2024-03-02T13:05:15;15.00;64.00
3256;DHT22;1640;48.504;9.224;2024-03-02T13:07:42;15.00;63.00
3256;DHT22;1640;48.504;9.224;2024-03-02T13:10:12;14.70;63.40
3256;DHT22;1640;48.504;9.224;2024-03-02T13:12:41;14.60;63.40
3256;DHT22;1640;48.504;9.224;2024-03-02T13:15:08;14.70;64.30
3256;DHT22;1640;48.504;9.224;2024-03-02T13:17:36;14.90;64.60
3256;DHT22;1640;48.504;9.224;2024-03-02T13:20:04;15.00;62.00
3256;DHT22;1640;48.504;9.224;2024-03-02T13:22:36;15.10;62.60
3256;DHT22;1640;48.504;9.224;2024-03-02T13:25:04;15.20;61.30
3256;DHT22;1640;48.504;9.224;2024-03-02T13:27:34;15.10;60.00
3256;DHT22;1640;48.504;9.224;2024-03-02T13:30:04;15.00;59.70
3256;DHT22;1640;48.504;9.224;2024-03-02T13:32:32;14.90;61.90
3256;DHT22;1640;48.504;9.224;2024-03-02T13:34:59;14.80;60.30
3256;DHT22;1640;48.504;9.224;2024-03-02T13:37:26;14.70;60.00
3256;DHT22;1640;48.504;9.224;2024-03-02T13:39:54;14.70;60.00
3256;DHT22;1640;48.504;9.224;2024-03-02T13:42:21;14.70;60.10
3256;DHT22;1640;48.504;9.224;2024-03-02T13:44:49;14.90;59.90
3256;DHT22;1640;48.504;9.224;2024-03-02T13:47:18;14.90;59.00
3256;DHT22;1640;48.504;9.224;2024-03-02T13:49:47;14.80;60.00
3256;DHT22;1640;48.504;9.224;2024-03-02T13:52:15;15.00;59.20
3256;DHT22;1640;48.504;9.224;2024-03-02T13:54:43;15.10;59.60
3256;DHT22;1640;48.504;9.224;2024-03-02T13:57:11;15.20;58.60
3256;DHT22;1640;48.504;9.224;2024-03-02T13:59:41;15.30;58.50
3256;DHT22;1640;48.504;9.224;2024-03-02T14:02:09;15.40;57.70
3256;DHT22;1640;48.504;9.224;2024-03-02T14:04:38;15.40;57.40
3256;DHT22;1640;48.504;9.224;2024-03-02T14:07:06;15.30;57.10
3256;DHT22;1640;48.504;9.224;2024-03-02T14:09:34;15.30;56.70
3256;DHT22;1640;48.504;9.224;2024-03-02T14:12:02;15.20;56.50
3256;DHT22;1640;48.504;9.224;2024-03-02T14:14:30;15.00;57.40
3256;DHT22;1640;48.504;9.224;2024-03-02T14:16:57;15.10;58.20
3256;DHT22;1640;48.504;9.224;2024-03-02T14:19:26;15.20;58.60
3256;DHT22;1640;48.504;9.224;2024-03-02T14:21:55;15.20;57.40
3256;DHT22;1640;48.504;9.224;2024-03-02T14:24:23;15.30;58.00
3256;DHT22;1640;48.504;9.224;2024-03-02T14:26:51;15.40;56.50
3256;DHT22;1640;48.504;9.224;2024-03-02T14:29:19;15.40;56.90
3256;DHT22;1640;48.504;9.224;2024-03-02T14:31:46;15.50;56.60
3256;DHT22;1640;48.504;9.224;2024-03-02T14:34:14;15.60;55.50
3256;DHT22;1640;48.504;9.224;2024-03-02T14:36:42;15.70;53.20
3256;DHT22;1640;48.504;9.224;2024-03-02T14:39:11;15.70;53.30
3256;DHT22;1640;48.504;9.224;2024-03-02T14:41:39;15.80;51.40
3256;DHT22;1640;48.504;9.224;2024-03-02T14:44:07;15.90;51.30
3256;DHT22;1640;48.504;9.224;2024-03-02T14:46:34;15.90;51.80
3256;DHT22;1640;48.504;9.224;2024-03-02T14:49:02;15.80;51.40
3256;DHT22;1640;48.504;9.224;2024-03-02T14:51:29;15.90;50.50
3256;DHT22;1640;48.504;9.224;2024-03-02T14:53:57;15.90;52.00
3256;DHT22;1640;48.504;9.224;2024-03-02T14:56:26;15.90;49.10
3256;DHT22;1640;48.504;9.224;2024-03-02T14:58:54;15.90;49.50
3256;DHT22;1640;48.504;9.224;2024-03-02T15:01:22;15.70;46.60
3256;DHT22;1640;48.504;9.224;2024-03-02T15:03:50;15.60;48.00
3256;DHT22;1640;48.504;9.224;2024-03-02T15:06:18;15.50;47.20
3256;DHT22;1640;48.504;9.224;2024-03-02T15:08:45;15.60;48.20
3256;DHT22;1640;48.504;9.224;2024-03-02T15:11:13;15.70;45.50
3256;DHT22;1640;48.504;9.224;2024-03-02T15:13:42;15.50;46.10
3256;DHT22;1640;48.504;9.224;2024-03-02T15:16:10;15.40;46.40
3256;DHT22;1640;48.504;9.224;2024-03-02T15:18:37;15.20;46.70
3256;DHT22;1640;48.504;9.224;2024-03-02T15:21:05;15.10;46.30
3256;DHT22;1640;48.504;9.224;2024-03-02T15:23:32;14.90;47.10
3256;DHT22;1640;48.504;9.224;2024-03-02T15:26:00;14.80;43.70
3256;DHT22;1640;48.504;9.224;2024-03-02T15:28:27;14.60;41.30
3256;DHT22;1640;48.504;9.224;2024-03-02T15:30:56;14.50;42.20
3256;DHT22;1640;48.504;9.224;2024-03-02T15:33:24;14.50;44.10
3256;DHT22;1640;48.504;9.224;2024-03-02T15:35:58;14.40;45.50
3256;DHT22;1640;48.504;9.224;2024-03-02T15:38:25;14.40;46.00
3256;DHT22;1640;48.504;9.224;2024-03-02T15:40:52;14.30;47.00
3256;DHT22;1640;48.504;9.224;2024-03-02T15:43:20;14.30;47.90
3256;DHT22;1640;48.504;9.224;2024-03-02T15:45:47;14.20;48.60
3256;DHT22;1640;48.504;9.224;2024-03-02T15:48:16;14.20;49.50
3256;DHT22;1640;48.504;9.224;2024-03-02T15:50:44;14.20;50.10
3256;DHT22;1640;48.504;9.224;2024-03-02T15:53:11;14.20;51.30
3256;DHT22;1640;48.504;9.224;2024-03-02T15:55:40;14.10;52.00
3256;DHT22;1640;48.504;9.224;2024-03-02T15:58:07;14.10;52.40
3256;DHT22;1640;48.504;9.224;2024-03-02T16:00:34;14.00;54.00
3256;DHT22;1640;48.504;9.224;2024-03-02T16:03:02;13.90;55.90
3256;DHT22;1640;48.504;9.224;2024-03-02T16:05:31;13.90;58.60
3256;DHT22;1640;48.504;9.224;2024-03-02T16:07:58;13.70;59.20
3256;DHT22;1640;48.504;9.224;2024-03-02T16:10:26;13.70;62.40
3256;DHT22;1640;48.504;9.224;2024-03-02T16:12:53;13.70;63.30
3256;DHT22;1640;48.504;9.224;2024-03-02T16:15:26;13.70;64.90
3256;DHT22;1640;48.504;9.224;2024-03-02T16:17:54;13.60;66.00
3256;DHT22;1640;48.504;9.224;2024-03-02T16:20:21;13.60;66.90
3256;DHT22;1640;48.504;9.224;2024-03-02T16:22:50;13.50;68.30
3256;DHT22;1640;48.504;9.224;2024-03-02T16:25:18;13.40;69.20
3256;DHT22;1640;48.504;9.224;2024-03-02T16:27:45;13.40;69.80
3256;DHT22;1640;48.504;9.224;2024-03-02T16:30:13;13.40;70.60
3256;DHT22;1640;48.504;9.224;2024-03-02T16:32:41;13.30;71.90